sensor_id;sensor_type;location;lat;lon;timestamp;P1;durP1;ratioP1;P2;durP2;ratioP2
19940;SDS011;10132;50.864;5.176;2023-10-13T00:01:36;21.10;;;14.60;;
19940;SDS011;10132;50.864;5.176;2023-10-13T00:03:38;21.08;;;14.15;;
19940;SDS011;10132;50.864;5.176;2023-10-13T00:05:40;20.10;;;14.00;;
19940;SDS011;10132;50.864;5.176;2023-10-13T00:07:43;23.05;;;14.93;;
19940;SDS011;10132;50.864;5.176;2023-10-13T00:09:45;21.85;;;15.63;;
19940;SDS011;10132;50.864;5.176;2023-10-13T00:11:49;20.95;;;14.52;;
19940;SDS011;10132;50.864;5.176;2023-10-13T00:13:52;21.90;;;14.68;;
19940;SDS011;10132;50.864;5.176;2023-10-13T00:15:54;16.27;;;13.50;;
19940;SDS011;10132;50.864;5.176;2023-10-13T00:17:57;19.40;;;14.20;;
19940;SDS011;10132;50.864;5.176;2023-10-13T00:19:59;20.60;;;13.90;;
19940;SDS011;10132;50.864;5.176;2023-10-13T00:22:13;20.92;;;14.82;;
19940;SDS011;10132;50.864;5.176;2023-10-13T00:24:16;19.15;;;13.00;;
19940;SDS011;10132;50.864;5.176;2023-10-13T00:26:24;21.25;;;14.02;;
19940;SDS011;10132;50.864;5.176;2023-10-13T00:28:29;17.55;;;14.10;;
19940;SDS011;10132;50.864;5.176;2023-10-13T00:30:43;20.70;;;13.60;;
19940;SDS011;10132;50.864;5.176;2023-10-13T00:32:51;19.60;;;13.90;;
19940;SDS011;10132;50.864;5.176;2023-10-13T00:34:55;16.95;;;13.63;;
19940;SDS011;10132;50.864;5.176;2023-10-13T00:36:57;17.90;;;14.23;;
19940;SDS011;10132;50.864;5.176;2023-10-13T00:39:16;19.45;;;13.50;;
19940;SDS011;10132;50.864;5.176;2023-10-13T00:41:18;17.25;;;11.77;;
19940;SDS011;10132;50.864;5.176;2023-10-13T00:43:48;22.73;;;13.70;;
19940;SDS011;10132;50.864;5.176;2023-10-13T00:46:03;19.48;;;13.82;;
19940;SDS011;10132;50.864;5.176;2023-10-13T00:48:12;18.65;;;14.32;;
19940;SDS011;10132;50.864;5.176;2023-10-13T00:50:15;19.67;;;13.63;;
19940;SDS011;10132;50.864;5.176;2023-10-13T00:52:18;17.70;;;14.00;;
19940;SDS011;10132;50.864;5.176;2023-10-13T00:54:19;17.52;;;12.80;;
19940;SDS011;10132;50.864;5.176;2023-10-13T00:56:26;19.50;;;13.60;;
19940;SDS011;10132;50.864;5.176;2023-10-13T00:58:28;17.10;;;13.85;;
19940;SDS011;10132;50.864;5.176;2023-10-13T01:00:32;14.82;;;12.80;;
19940;SDS011;10132;50.864;5.176;2023-10-13T01:02:46;24.38;;;14.45;;
19940;SDS011;10132;50.864;5.176;2023-10-13T01:04:55;26.15;;;14.43;;
19940;SDS011;10132;50.864;5.176;2023-10-13T01:06:56;19.73;;;13.27;;
19940;SDS011;10132;50.864;5.176;2023-10-13T01:09:00;19.63;;;12.73;;
19940;SDS011;10132;50.864;5.176;2023-10-13T01:11:11;18.80;;;13.63;;
19940;SDS011;10132;50.864;5.176;2023-10-13T01:13:13;18.30;;;11.98;;
19940;SDS011;10132;50.864;5.176;2023-10-13T01:15:15;20.75;;;13.20;;
19940;SDS011;10132;50.864;5.176;2023-10-13T01:17:22;20.35;;;13.18;;
19940;SDS011;10132;50.864;5.176;2023-10-13T01:19:23;19.02;;;13.48;;
19940;SDS011;10132;50.864;5.176;2023-10-13T01:21:27;17.30;;;13.68;;
19940;SDS011;10132;50.864;5.176;2023-10-13T01:23:30;19.92;;;12.88;;
19940;SDS011;10132;50.864;5.176;2023-10-13T01:25:38;21.38;;;13.52;;
19940;SDS011;10132;50.864;5.176;2023-10-13T01:27:40;22.20;;;13.75;;
19940;SDS011;10132;50.864;5.176;2023-10-13T01:29:42;18.17;;;12.93;;
19940;SDS011;10132;50.864;5.176;2023-10-13T01:31:48;16.77;;;13.10;;
19940;SDS011;10132;50.864;5.176;2023-10-13T01:33:50;18.05;;;13.40;;
19940;SDS011;10132;50.864;5.176;2023-10-13T01:35:54;18.85;;;13.45;;
19940;SDS011;10132;50.864;5.176;2023-10-13T01:37:58;19.50;;;14.05;;
19940;SDS011;10132;50.864;5.176;2023-10-13T01:40:00;19.77;;;13.70;;
19940;SDS011;10132;50.864;5.176;2023-10-13T01:42:03;19.58;;;13.15;;
19940;SDS011;10132;50.864;5.176;2023-10-13T01:44:06;18.25;;;13.68;;
19940;SDS011;10132;50.864;5.176;2023-10-13T01:46:11;20.15;;;12.55;;
19940;SDS011;10132;50.864;5.176;2023-10-13T01:48:15;18.98;;;12.77;;
19940;SDS011;10132;50.864;5.176;2023-10-13T01:50:18;20.50;;;13.20;;
19940;SDS011;10132;50.864;5.176;2023-10-13T01:52:21;17.70;;;13.20;;
19940;SDS011;10132;50.864;5.176;2023-10-13T01:54:25;20.80;;;14.15;;
19940;SDS011;10132;50.864;5.176;2023-10-13T01:56:27;19.33;;;14.10;;
19940;SDS011;10132;50.864;5.176;2023-10-13T01:58:30;19.58;;;13.23;;
19940;SDS011;10132;50.864;5.176;2023-10-13T02:00:31;18.13;;;13.45;;
19940;SDS011;10132;50.864;5.176;2023-10-13T02:02:32;19.70;;;14.15;;
19940;SDS011;10132;50.864;5.176;2023-10-13T02:04:34;19.42;;;13.23;;
19940;SDS011;10132;50.864;5.176;2023-10-13T02:06:36;23.10;;;13.48;;
19940;SDS011;10132;50.864;5.176;2023-10-13T02:08:38;18.90;;;13.18;;
19940;SDS011;10132;50.864;5.176;2023-10-13T02:10:42;21.15;;;13.95;;
19940;SDS011;10132;50.864;5.176;2023-10-13T02:12:46;18.83;;;12.52;;
19940;SDS011;10132;50.864;5.176;2023-10-13T02:14:47;15.98;;;11.90;;
19940;SDS011;10132;50.864;5.176;2023-10-13T02:16:49;16.35;;;12.32;;
19940;SDS011;10132;50.864;5.176;2023-10-13T02:18:51;19.73;;;12.57;;
19940;SDS011;10132;50.864;5.176;2023-10-13T02:20:53;20.20;;;11.77;;
19940;SDS011;10132;50.864;5.176;2023-10-13T02:22:58;16.48;;;12.75;;
19940;SDS011;10132;50.864;5.176;2023-10-13T02:25:00;18.05;;;11.77;;
19940;SDS011;10132;50.864;5.176;2023-10-13T02:27:06;21.40;;;12.25;;
19940;SDS011;10132;50.864;5.176;2023-10-13T02:29:14;15.05;;;10.93;;
19940;SDS011;10132;50.864;5.176;2023-10-13T02:31:17;18.10;;;11.23;;
19940;SDS011;10132;50.864;5.176;2023-10-13T02:33:24;14.82;;;10.55;;
19940;SDS011;10132;50.864;5.176;2023-10-13T02:35:29;19.30;;;10.80;;
19940;SDS011;10132;50.864;5.176;2023-10-13T02:37:43;18.23;;;11.55;;
19940;SDS011;10132;50.864;5.176;2023-10-13T02:39:48;13.65;;;10.38;;
19940;SDS011;10132;50.864;5.176;2023-10-13T02:41:50;13.38;;;9.95;;
19940;SDS011;10132;50.864;5.176;2023-10-13T02:43:51;18.38;;;11.13;;
19940;SDS011;10132;50.864;5.176;2023-10-13T02:45:54;15.00;;;11.00;;
19940;SDS011;10132;50.864;5.176;2023-10-13T02:47:59;16.02;;;10.73;;
19940;SDS011;10132;50.864;5.176;2023-10-13T02:50:13;14.48;;;10.23;;
19940;SDS011;10132;50.864;5.176;2023-10-13T02:52:17;13.82;;;9.45;;
19940;SDS011;10132;50.864;5.176;2023-10-13T02:54:20;17.50;;;9.25;;
19940;SDS011;10132;50.864;5.176;2023-10-13T02:56:21;17.77;;;9.88;;
19940;SDS011;10132;50.864;5.176;2023-10-13T02:58:23;16.35;;;9.35;;
19940;SDS011;10132;50.864;5.176;2023-10-13T03:00:38;14.82;;;9.45;;
19940;SDS011;10132;50.864;5.176;2023-10-13T03:02:42;20.65;;;9.43;;
19940;SDS011;10132;50.864;5.176;2023-10-13T03:04:46;15.38;;;10.10;;
19940;SDS011;10132;50.864;5.176;2023-10-13T03:06:48;12.75;;;8.88;;
19940;SDS011;10132;50.864;5.176;2023-10-13T03:08:49;16.38;;;8.75;;
19940;SDS011;10132;50.864;5.176;2023-10-13T03:10:52;16.25;;;10.07;;
19940;SDS011;10132;50.864;5.176;2023-10-13T03:12:54;15.63;;;9.57;;
19940;SDS011;10132;50.864;5.176;2023-10-13T03:14:57;14.60;;;9.20;;
19940;SDS011;10132;50.864;5.176;2023-10-13T03:17:12;17.15;;;9.52;;
19940;SDS011;10132;50.864;5.176;2023-10-13T03:19:20;16.23;;;9.20;;
19940;SDS011;10132;50.864;5.176;2023-10-13T03:21:22;16.63;;;8.85;;
19940;SDS011;10132;50.864;5.176;2023-10-13T03:23:31;15.82;;;8.88;;
19940;SDS011;10132;50.864;5.176;2023-10-13T03:25:45;16.83;;;9.50;;
19940;SDS011;10132;50.864;5.176;2023-10-13T03:27:50;15.13;;;9.35;;
19940;SDS011;10132;50.864;5.176;2023-10-13T03:30:01;17.90;;;9.23;;
19940;SDS011;10132;50.864;5.176;2023-10-13T03:32:10;16.27;;;8.88;;
19940;SDS011;10132;50.864;5.176;2023-10-13T03:34:13;14.05;;;9.00;;
19940;SDS011;10132;50.864;5.176;2023-10-13T03:36:17;14.65;;;8.82;;
19940;SDS011;10132;50.864;5.176;2023-10-13T03:38:47;16.35;;;9.38;;
19940;SDS011;10132;50.864;5.176;2023-10-13T03:40:55;12.18;;;8.73;;
19940;SDS011;10132;50.864;5.176;2023-10-13T03:43:07;13.18;;;9.35;;
19940;SDS011;10132;50.864;5.176;2023-10-13T03:45:10;13.35;;;8.60;;
19940;SDS011;10132;50.864;5.176;2023-10-13T03:47:12;12.15;;;8.35;;
19940;SDS011;10132;50.864;5.176;2023-10-13T03:49:26;14.98;;;8.38;;
19940;SDS011;10132;50.864;5.176;2023-10-13T03:51:30;11.10;;;8.18;;
19940;SDS011;10132;50.864;5.176;2023-10-13T03:53:34;13.63;;;7.88;;
19940;SDS011;10132;50.864;5.176;2023-10-13T03:55:36;14.82;;;8.70;;
19940;SDS011;10132;50.864;5.176;2023-10-13T03:57:38;14.70;;;7.93;;
19940;SDS011;10132;50.864;5.176;2023-10-13T03:59:42;12.23;;;8.73;;
19940;SDS011;10132;50.864;5.176;2023-10-13T04:01:48;13.23;;;7.68;;
19940;SDS011;10132;50.864;5.176;2023-10-13T04:03:59;13.65;;;7.15;;
19940;SDS011;10132;50.864;5.176;2023-10-13T04:06:04;14.68;;;7.65;;
19940;SDS011;10132;50.864;5.176;2023-10-13T04:08:07;13.55;;;7.28;;
19940;SDS011;10132;50.864;5.176;2023-10-13T04:10:32;14.60;;;7.95;;
19940;SDS011;10132;50.864;5.176;2023-10-13T04:12:51;15.90;;;8.02;;
19940;SDS011;10132;50.864;5.176;2023-10-13T04:15:26;14.13;;;7.32;;
19940;SDS011;10132;50.864;5.176;2023-10-13T04:17:37;12.50;;;7.60;;
19940;SDS011;10132;50.864;5.176;2023-10-13T04:19:40;15.57;;;7.78;;
19940;SDS011;10132;50.864;5.176;2023-10-13T04:22:07;15.00;;;7.57;;
19940;SDS011;10132;50.864;5.176;2023-10-13T04:24:22;10.52;;;7.78;;
19940;SDS011;10132;50.864;5.176;2023-10-13T04:26:37;13.90;;;7.13;;
19940;SDS011;10132;50.864;5.176;2023-10-13T04:28:58;10.75;;;7.63;;
19940;SDS011;10132;50.864;5.176;2023-10-13T04:31:09;15.80;;;7.72;;
19940;SDS011;10132;50.864;5.176;2023-10-13T04:33:25;12.95;;;7.47;;
19940;SDS011;10132;50.864;5.176;2023-10-13T04:35:44;12.05;;;7.45;;
19940;SDS011;10132;50.864;5.176;2023-10-13T04:37:58;13.40;;;6.85;;
19940;SDS011;10132;50.864;5.176;2023-10-13T04:40:02;15.70;;;7.55;;
19940;SDS011;10132;50.864;5.176;2023-10-13T04:42:09;15.05;;;7.47;;
19940;SDS011;10132;50.864;5.176;2023-10-13T04:44:27;19.25;;;7.38;;
19940;SDS011;10132;50.864;5.176;2023-10-13T04:46:43;14.02;;;7.35;;
19940;SDS011;10132;50.864;5.176;2023-10-13T04:48:54;16.13;;;7.35;;
19940;SDS011;10132;50.864;5.176;2023-10-13T04:51:01;13.75;;;6.78;;
19940;SDS011;10132;50.864;5.176;2023-10-13T04:53:20;14.27;;;7.28;;
19940;SDS011;10132;50.864;5.176;2023-10-13T04:55:35;18.00;;;8.32;;
19940;SDS011;10132;50.864;5.176;2023-10-13T04:57:59;12.23;;;6.40;;
19940;SDS011;10132;50.864;5.176;2023-10-13T05:00:11;13.65;;;6.90;;
19940;SDS011;10132;50.864;5.176;2023-10-13T05:02:28;18.73;;;7.30;;
19940;SDS011;10132;50.864;5.176;2023-10-13T05:04:43;14.65;;;6.78;;
19940;SDS011;10132;50.864;5.176;2023-10-13T05:06:59;12.52;;;7.03;;
19940;SDS011;10132;50.864;5.176;2023-10-13T05:09:19;12.48;;;6.50;;
19940;SDS011;10132;50.864;5.176;2023-10-13T05:11:40;14.00;;;7.32;;
19940;SDS011;10132;50.864;5.176;2023-10-13T05:13:59;11.80;;;7.18;;
19940;SDS011;10132;50.864;5.176;2023-10-13T05:16:19;13.20;;;6.95;;
19940;SDS011;10132;50.864;5.176;2023-10-13T05:18:38;9.35;;;6.10;;
19940;SDS011;10132;50.864;5.176;2023-10-13T05:20:57;15.50;;;7.25;;
19940;SDS011;10132;50.864;5.176;2023-10-13T05:23:16;14.00;;;7.07;;
19940;SDS011;10132;50.864;5.176;2023-10-13T05:25:35;14.60;;;7.70;;
19940;SDS011;10132;50.864;5.176;2023-10-13T05:27:57;15.45;;;7.07;;
19940;SDS011;10132;50.864;5.176;2023-10-13T05:30:16;13.35;;;7.53;;
19940;SDS011;10132;50.864;5.176;2023-10-13T05:32:36;15.40;;;6.55;;
19940;SDS011;10132;50.864;5.176;2023-10-13T05:34:55;13.05;;;6.65;;
19940;SDS011;10132;50.864;5.176;2023-10-13T05:37:14;13.75;;;6.70;;
19940;SDS011;10132;50.864;5.176;2023-10-13T05:39:34;13.73;;;6.70;;
19940;SDS011;10132;50.864;5.176;2023-10-13T05:41:53;9.73;;;5.97;;
19940;SDS011;10132;50.864;5.176;2023-10-13T05:44:14;14.50;;;6.53;;
19940;SDS011;10132;50.864;5.176;2023-10-13T05:46:37;13.27;;;6.45;;
19940;SDS011;10132;50.864;5.176;2023-10-13T05:49:02;14.23;;;6.75;;
19940;SDS011;10132;50.864;5.176;2023-10-13T05:51:27;14.25;;;5.93;;
19940;SDS011;10132;50.864;5.176;2023-10-13T05:53:33;15.02;;;6.63;;
19940;SDS011;10132;50.864;5.176;2023-10-13T05:56:03;14.63;;;6.65;;
19940;SDS011;10132;50.864;5.176;2023-10-13T05:58:23;13.90;;;7.28;;
19940;SDS011;10132;50.864;5.176;2023-10-13T06:00:44;13.63;;;6.10;;
19940;SDS011;10132;50.864;5.176;2023-10-13T06:03:03;13.27;;;6.05;;
19940;SDS011;10132;50.864;5.176;2023-10-13T06:05:23;10.55;;;6.15;;
19940;SDS011;10132;50.864;5.176;2023-10-13T06:07:42;13.82;;;6.25;;
19940;SDS011;10132;50.864;5.176;2023-10-13T06:10:02;15.43;;;6.28;;
19940;SDS011;10132;50.864;5.176;2023-10-13T06:12:21;11.75;;;5.70;;
19940;SDS011;10132;50.864;5.176;2023-10-13T06:14:55;12.40;;;6.18;;
19940;SDS011;10132;50.864;5.176;2023-10-13T06:17:16;15.43;;;6.10;;
19940;SDS011;10132;50.864;5.176;2023-10-13T06:19:36;18.52;;;6.70;;
19940;SDS011;10132;50.864;5.176;2023-10-13T06:21:55;16.77;;;6.75;;
19940;SDS011;10132;50.864;5.176;2023-10-13T06:24:14;14.27;;;6.05;;
19940;SDS011;10132;50.864;5.176;2023-10-13T06:26:34;14.82;;;6.30;;
19940;SDS011;10132;50.864;5.176;2023-10-13T06:28:53;17.77;;;5.72;;
19940;SDS011;10132;50.864;5.176;2023-10-13T06:30:58;15.18;;;5.63;;
19940;SDS011;10132;50.864;5.176;2023-10-13T06:33:04;15.77;;;6.10;;
19940;SDS011;10132;50.864;5.176;2023-10-13T06:35:06;13.77;;;6.18;;
19940;SDS011;10132;50.864;5.176;2023-10-13T06:37:09;14.40;;;6.00;;
19940;SDS011;10132;50.864;5.176;2023-10-13T06:39:22;13.45;;;5.65;;
19940;SDS011;10132;50.864;5.176;2023-10-13T06:41:35;17.00;;;6.93;;
19940;SDS011;10132;50.864;5.176;2023-10-13T06:43:40;14.05;;;5.90;;
19940;SDS011;10132;50.864;5.176;2023-10-13T06:45:43;17.08;;;6.32;;
19940;SDS011;10132;50.864;5.176;2023-10-13T06:47:50;14.45;;;5.70;;
19940;SDS011;10132;50.864;5.176;2023-10-13T06:49:55;14.15;;;6.05;;
19940;SDS011;10132;50.864;5.176;2023-10-13T06:51:56;14.60;;;6.03;;
19940;SDS011;10132;50.864;5.176;2023-10-13T06:54:00;14.73;;;5.60;;
19940;SDS011;10132;50.864;5.176;2023-10-13T06:56:05;13.27;;;5.78;;
19940;SDS011;10132;50.864;5.176;2023-10-13T06:58:09;14.88;;;5.93;;
19940;SDS011;10132;50.864;5.176;2023-10-13T07:00:13;10.68;;;5.35;;
19940;SDS011;10132;50.864;5.176;2023-10-13T07:02:28;10.73;;;5.82;;
19940;SDS011;10132;50.864;5.176;2023-10-13T07:04:33;15.25;;;5.72;;
19940;SDS011;10132;50.864;5.176;2023-10-13T07:06:41;11.18;;;6.00;;
19940;SDS011;10132;50.864;5.176;2023-10-13T07:08:47;13.93;;;5.70;;
19940;SDS011;10132;50.864;5.176;2023-10-13T07:10:53;14.43;;;5.55;;
19940;SDS011;10132;50.864;5.176;2023-10-13T07:13:03;14.93;;;5.07;;
19940;SDS011;10132;50.864;5.176;2023-10-13T07:15:08;13.50;;;4.78;;
19940;SDS011;10132;50.864;5.176;2023-10-13T07:17:11;9.63;;;5.40;;
19940;SDS011;10132;50.864;5.176;2023-10-13T07:19:13;18.42;;;5.60;;
19940;SDS011;10132;50.864;5.176;2023-10-13T07:21:17;12.82;;;5.40;;
19940;SDS011;10132;50.864;5.176;2023-10-13T07:23:26;15.73;;;5.18;;
19940;SDS011;10132;50.864;5.176;2023-10-13T07:25:30;13.52;;;4.97;;
19940;SDS011;10132;50.864;5.176;2023-10-13T07:27:32;12.40;;;4.88;;
19940;SDS011;10132;50.864;5.176;2023-10-13T07:29:36;14.48;;;7.38;;
19940;SDS011;10132;50.864;5.176;2023-10-13T07:31:38;11.98;;;5.50;;
19940;SDS011;10132;50.864;5.176;2023-10-13T07:33:44;16.42;;;5.13;;
19940;SDS011;10132;50.864;5.176;2023-10-13T07:35:47;11.98;;;5.22;;
19940;SDS011;10132;50.864;5.176;2023-10-13T07:37:50;14.57;;;5.25;;
19940;SDS011;10132;50.864;5.176;2023-10-13T07:39:55;10.30;;;5.22;;
19940;SDS011;10132;50.864;5.176;2023-10-13T07:41:59;11.48;;;4.97;;
19940;SDS011;10132;50.864;5.176;2023-10-13T07:44:06;13.68;;;5.20;;
19940;SDS011;10132;50.864;5.176;2023-10-13T07:46:07;13.13;;;4.45;;
19940;SDS011;10132;50.864;5.176;2023-10-13T07:48:10;13.25;;;5.50;;
19940;SDS011;10132;50.864;5.176;2023-10-13T07:50:20;10.15;;;4.90;;
19940;SDS011;10132;50.864;5.176;2023-10-13T07:52:25;16.88;;;4.97;;
19940;SDS011;10132;50.864;5.176;2023-10-13T07:54:37;13.13;;;4.78;;
19940;SDS011;10132;50.864;5.176;2023-10-13T07:56:41;10.63;;;4.40;;
19940;SDS011;10132;50.864;5.176;2023-10-13T07:58:43;10.10;;;4.07;;
19940;SDS011;10132;50.864;5.176;2023-10-13T08:00:52;14.80;;;5.32;;
19940;SDS011;10132;50.864;5.176;2023-10-13T08:03:07;12.77;;;5.05;;
19940;SDS011;10132;50.864;5.176;2023-10-13T08:05:19;14.32;;;4.93;;
19940;SDS011;10132;50.864;5.176;2023-10-13T08:07:39;10.48;;;4.63;;
19940;SDS011;10132;50.864;5.176;2023-10-13T08:09:41;14.40;;;5.22;;
19940;SDS011;10132;50.864;5.176;2023-10-13T08:11:53;15.45;;;5.60;;
19940;SDS011;10132;50.864;5.176;2023-10-13T08:13:55;9.00;;;5.60;;
19940;SDS011;10132;50.864;5.176;2023-10-13T08:16:00;10.85;;;5.13;;
19940;SDS011;10132;50.864;5.176;2023-10-13T08:18:07;10.30;;;4.40;;
19940;SDS011;10132;50.864;5.176;2023-10-13T08:20:17;12.15;;;5.35;;
19940;SDS011;10132;50.864;5.176;2023-10-13T08:22:22;10.90;;;5.18;;
19940;SDS011;10132;50.864;5.176;2023-10-13T08:24:36;13.02;;;5.28;;
19940;SDS011;10132;50.864;5.176;2023-10-13T08:26:53;11.77;;;5.20;;
19940;SDS011;10132;50.864;5.176;2023-10-13T08:29:12;9.65;;;5.03;;
19940;SDS011;10132;50.864;5.176;2023-10-13T08:31:46;14.70;;;5.72;;
19940;SDS011;10132;50.864;5.176;2023-10-13T08:34:04;11.93;;;5.35;;
19940;SDS011;10132;50.864;5.176;2023-10-13T08:36:07;9.70;;;5.07;;
19940;SDS011;10132;50.864;5.176;2023-10-13T08:38:28;11.32;;;5.22;;
19940;SDS011;10132;50.864;5.176;2023-10-13T08:40:34;12.73;;;5.20;;
19940;SDS011;10132;50.864;5.176;2023-10-13T08:42:55;13.15;;;5.80;;
19940;SDS011;10132;50.864;5.176;2023-10-13T08:45:11;14.15;;;5.43;;
19940;SDS011;10132;50.864;5.176;2023-10-13T08:47:20;11.63;;;5.60;;
19940;SDS011;10132;50.864;5.176;2023-10-13T08:49:25;10.52;;;5.45;;
19940;SDS011;10132;50.864;5.176;2023-10-13T08:51:38;9.20;;;5.30;;
19940;SDS011;10132;50.864;5.176;2023-10-13T08:53:49;7.00;;;4.80;;
19940;SDS011;10132;50.864;5.176;2023-10-13T08:55:59;11.45;;;5.80;;
19940;SDS011;10132;50.864;5.176;2023-10-13T08:58:16;12.75;;;6.10;;
19940;SDS011;10132;50.864;5.176;2023-10-13T09:00:20;11.52;;;5.30;;
19940;SDS011;10132;50.864;5.176;2023-10-13T09:02:38;14.40;;;5.80;;
19940;SDS011;10132;50.864;5.176;2023-10-13T09:04:54;13.32;;;7.50;;
19940;SDS011;10132;50.864;5.176;2023-10-13T09:07:09;10.00;;;5.85;;
19940;SDS011;10132;50.864;5.176;2023-10-13T09:09:15;12.45;;;5.40;;
19940;SDS011;10132;50.864;5.176;2023-10-13T09:11:34;10.27;;;5.93;;
19940;SDS011;10132;50.864;5.176;2023-10-13T09:13:50;10.40;;;5.47;;
19940;SDS011;10132;50.864;5.176;2023-10-13T09:15:52;12.85;;;5.40;;
19940;SDS011;10132;50.864;5.176;2023-10-13T09:18:02;10.57;;;6.15;;
19940;SDS011;10132;50.864;5.176;2023-10-13T09:20:13;17.17;;;5.97;;
19940;SDS011;10132;50.864;5.176;2023-10-13T09:22:32;12.90;;;6.15;;
19940;SDS011;10132;50.864;5.176;2023-10-13T09:24:35;9.73;;;6.00;;
19940;SDS011;10132;50.864;5.176;2023-10-13T09:26:37;12.80;;;6.32;;
19940;SDS011;10132;50.864;5.176;2023-10-13T09:28:38;11.50;;;6.32;;
19940;SDS011;10132;50.864;5.176;2023-10-13T09:30:45;10.60;;;6.25;;
19940;SDS011;10132;50.864;5.176;2023-10-13T09:32:47;12.13;;;5.82;;
19940;SDS011;10132;50.864;5.176;2023-10-13T09:35:01;11.45;;;6.18;;
19940;SDS011;10132;50.864;5.176;2023-10-13T09:37:05;10.18;;;6.15;;
19940;SDS011;10132;50.864;5.176;2023-10-13T09:39:10;12.68;;;5.93;;
19940;SDS011;10132;50.864;5.176;2023-10-13T09:41:14;10.93;;;6.00;;
19940;SDS011;10132;50.864;5.176;2023-10-13T09:43:19;14.80;;;6.22;;
19940;SDS011;10132;50.864;5.176;2023-10-13T09:45:23;9.40;;;6.00;;
19940;SDS011;10132;50.864;5.176;2023-10-13T09:47:30;15.45;;;5.53;;
19940;SDS011;10132;50.864;5.176;2023-10-13T09:49:38;12.85;;;5.63;;
19940;SDS011;10132;50.864;5.176;2023-10-13T09:51:49;14.75;;;6.03;;
19940;SDS011;10132;50.864;5.176;2023-10-13T09:53:58;12.02;;;6.13;;
19940;SDS011;10132;50.864;5.176;2023-10-13T09:56:07;12.48;;;5.72;;
19940;SDS011;10132;50.864;5.176;2023-10-13T09:58:14;12.57;;;6.00;;
19940;SDS011;10132;50.864;5.176;2023-10-13T10:00:19;11.40;;;5.78;;
19940;SDS011;10132;50.864;5.176;2023-10-13T10:02:50;9.77;;;6.05;;
19940;SDS011;10132;50.864;5.176;2023-10-13T10:04:57;14.30;;;5.85;;
19940;SDS011;10132;50.864;5.176;2023-10-13T10:07:12;13.10;;;6.43;;
19940;SDS011;10132;50.864;5.176;2023-10-13T10:09:28;12.77;;;5.78;;
19940;SDS011;10132;50.864;5.176;2023-10-13T10:14:10;11.32;;;6.05;;
19940;SDS011;10132;50.864;5.176;2023-10-13T10:16:20;14.57;;;6.03;;
19940;SDS011;10132;50.864;5.176;2023-10-13T10:18:37;11.15;;;6.13;;
19940;SDS011;10132;50.864;5.176;2023-10-13T10:20:39;16.95;;;6.68;;
19940;SDS011;10132;50.864;5.176;2023-10-13T10:22:42;10.57;;;5.60;;
19940;SDS011;10132;50.864;5.176;2023-10-13T10:24:55;9.75;;;5.30;;
19940;SDS011;10132;50.864;5.176;2023-10-13T10:26:57;9.15;;;5.75;;
19940;SDS011;10132;50.864;5.176;2023-10-13T10:28:59;11.77;;;5.75;;
19940;SDS011;10132;50.864;5.176;2023-10-13T10:31:14;11.95;;;5.38;;
19940;SDS011;10132;50.864;5.176;2023-10-13T10:33:17;13.15;;;5.97;;
19940;SDS011;10132;50.864;5.176;2023-10-13T10:35:22;15.15;;;5.97;;
19940;SDS011;10132;50.864;5.176;2023-10-13T10:37:30;11.00;;;6.20;;
19940;SDS011;10132;50.864;5.176;2023-10-13T10:39:34;12.13;;;6.05;;
19940;SDS011;10132;50.864;5.176;2023-10-13T10:41:45;8.98;;;5.28;;
19940;SDS011;10132;50.864;5.176;2023-10-13T10:43:52;14.50;;;5.68;;
19940;SDS011;10132;50.864;5.176;2023-10-13T10:45:54;10.90;;;5.72;;
19940;SDS011;10132;50.864;5.176;2023-10-13T10:47:59;18.00;;;6.40;;
19940;SDS011;10132;50.864;5.176;2023-10-13T10:50:25;10.77;;;5.60;;
19940;SDS011;10132;50.864;5.176;2023-10-13T10:52:34;12.90;;;5.50;;
19940;SDS011;10132;50.864;5.176;2023-10-13T10:54:39;12.45;;;5.82;;
19940;SDS011;10132;50.864;5.176;2023-10-13T10:56:44;11.90;;;6.15;;
19940;SDS011;10132;50.864;5.176;2023-10-13T10:58:56;12.77;;;5.28;;
19940;SDS011;10132;50.864;5.176;2023-10-13T11:01:06;16.50;;;5.80;;
19940;SDS011;10132;50.864;5.176;2023-10-13T11:03:10;13.43;;;5.15;;
19940;SDS011;10132;50.864;5.176;2023-10-13T11:05:12;14.27;;;5.57;;
19940;SDS011;10132;50.864;5.176;2023-10-13T11:07:24;15.82;;;5.55;;
19940;SDS011;10132;50.864;5.176;2023-10-13T11:09:29;8.75;;;4.70;;
19940;SDS011;10132;50.864;5.176;2023-10-13T11:11:38;13.95;;;5.63;;
19940;SDS011;10132;50.864;5.176;2023-10-13T11:13:44;15.55;;;5.07;;
19940;SDS011;10132;50.864;5.176;2023-10-13T11:15:51;12.65;;;5.40;;
19940;SDS011;10132;50.864;5.176;2023-10-13T11:17:57;17.15;;;5.45;;
19940;SDS011;10132;50.864;5.176;2023-10-13T11:20:07;13.57;;;5.50;;
19940;SDS011;10132;50.864;5.176;2023-10-13T11:22:16;16.63;;;5.40;;
19940;SDS011;10132;50.864;5.176;2023-10-13T11:24:40;18.17;;;5.07;;
19940;SDS011;10132;50.864;5.176;2023-10-13T11:26:43;14.30;;;5.75;;
19940;SDS011;10132;50.864;5.176;2023-10-13T11:28:49;17.00;;;5.22;;
19940;SDS011;10132;50.864;5.176;2023-10-13T11:30:51;19.13;;;5.88;;
19940;SDS011;10132;50.864;5.176;2023-10-13T11:32:56;17.30;;;5.45;;
19940;SDS011;10132;50.864;5.176;2023-10-13T11:34:58;15.98;;;5.50;;
19940;SDS011;10132;50.864;5.176;2023-10-13T11:37:00;14.95;;;5.65;;
19940;SDS011;10132;50.864;5.176;2023-10-13T11:39:25;14.48;;;5.28;;
19940;SDS011;10132;50.864;5.176;2023-10-13T11:41:34;18.25;;;5.60;;
19940;SDS011;10132;50.864;5.176;2023-10-13T11:43:39;14.43;;;4.90;;
19940;SDS011;10132;50.864;5.176;2023-10-13T11:46:05;20.58;;;5.43;;
19940;SDS011;10132;50.864;5.176;2023-10-13T11:48:13;12.35;;;4.80;;
19940;SDS011;10132;50.864;5.176;2023-10-13T11:50:16;21.30;;;5.75;;
19940;SDS011;10132;50.864;5.176;2023-10-13T11:52:32;13.30;;;5.70;;
19940;SDS011;10132;50.864;5.176;2023-10-13T11:54:34;20.00;;;5.93;;
19940;SDS011;10132;50.864;5.176;2023-10-13T11:56:40;15.77;;;5.35;;
19940;SDS011;10132;50.864;5.176;2023-10-13T11:58:42;15.00;;;5.35;;
19940;SDS011;10132;50.864;5.176;2023-10-13T12:00:46;15.70;;;5.13;;
19940;SDS011;10132;50.864;5.176;2023-10-13T12:03:01;14.85;;;5.45;;
19940;SDS011;10132;50.864;5.176;2023-10-13T12:05:21;16.17;;;5.75;;
19940;SDS011;10132;50.864;5.176;2023-10-13T12:07:30;18.88;;;5.95;;
19940;SDS011;10132;50.864;5.176;2023-10-13T12:09:45;20.40;;;6.20;;
19940;SDS011;10132;50.864;5.176;2023-10-13T12:12:10;19.13;;;6.55;;
19940;SDS011;10132;50.864;5.176;2023-10-13T12:14:12;12.88;;;5.43;;
19940;SDS011;10132;50.864;5.176;2023-10-13T12:16:20;18.88;;;6.05;;
19940;SDS011;10132;50.864;5.176;2023-10-13T12:18:22;14.65;;;5.60;;
19940;SDS011;10132;50.864;5.176;2023-10-13T12:20:27;20.25;;;5.75;;
19940;SDS011;10132;50.864;5.176;2023-10-13T12:22:32;15.43;;;5.53;;
19940;SDS011;10132;50.864;5.176;2023-10-13T12:24:39;14.32;;;5.05;;
19940;SDS011;10132;50.864;5.176;2023-10-13T12:26:42;16.58;;;6.10;;
19940;SDS011;10132;50.864;5.176;2023-10-13T12:28:46;15.18;;;5.63;;
19940;SDS011;10132;50.864;5.176;2023-10-13T12:30:55;15.40;;;5.55;;
19940;SDS011;10132;50.864;5.176;2023-10-13T12:32:59;16.75;;;5.68;;
19940;SDS011;10132;50.864;5.176;2023-10-13T12:35:09;13.07;;;5.43;;
19940;SDS011;10132;50.864;5.176;2023-10-13T12:37:27;15.45;;;5.38;;
19940;SDS011;10132;50.864;5.176;2023-10-13T12:39:49;21.20;;;6.00;;
19940;SDS011;10132;50.864;5.176;2023-10-13T12:42:17;17.35;;;5.32;;
19940;SDS011;10132;50.864;5.176;2023-10-13T12:44:38;10.77;;;5.30;;
19940;SDS011;10132;50.864;5.176;2023-10-13T12:46:58;11.63;;;4.82;;